Time;durP1;ratioP1;P1;durP2;ratioP2;P2;SDS_P1;SDS_P2;PMS_P1;PMS_P2;Temp;Humidity;BMP_temperature;BMP_pressure;BME280_temperature;BME280_humidity;BME280_pressure;Samples;Min_cycle;Max_cycle;Signal;HPM_P1;HPM_P2
2023/10/01 00:00:43;;;;;;;4.37;3.37;;;17.80;99.90;;;;;;4932500;28;20527;-86
2023/10/01 00:09:46;;;;;;;;;;;;;;;;;;;;;
2023/10/01 00:22:35;;;;;;;4.57;2.90;;;17.80;99.90;;;;;;5032333;28;20568;-86
2023/10/01 00:37:29;;;;;;;;;;;;;;;;;;;;;
2023/10/01 00:53:43;;;;;;;;;;;;;;;;;;;;;
2023/10/01 01:23:45;;;;;;;;;;;;;;;;;;;;;
2023/10/01 01:33:57;;;;;;;4.30;3.20;;;17.70;99.90;;;;;;4871534;29;20475;-83
2023/10/01 01:36:44;;;;;;;6.30;3.40;;;17.70;99.90;;;;;;5096099;23;20485;-84
2023/10/01 01:43:33;;;;;;;5.63;3.50;;;17.60;99.90;;;;;;5055872;28;20477;-83
2023/10/01 01:53:50;;;;;;;5.13;3.23;;;17.60;99.90;;;;;;4915212;29;20480;-83
2023/10/01 02:11:06;;;;;;;;;;;;;;;;;;;;;
2023/10/01 02:37:05;;;;;;;4.63;4.13;;;17.50;99.90;;;;;;4887906;29;20480;-85
2023/10/01 02:46:33;;;;;;;6.93;4.40;;;17.40;99.90;;;;;;5351211;23;20587;-83
2023/10/01 03:02:08;;;;;;;4.83;3.37;;;17.40;99.90;;;;;;5010798;28;20438;-85
2023/10/01 03:15:41;;;;;;;5.70;4.30;;;17.40;99.90;;;;;;4865063;29;20531;-83
2023/10/01 03:36:35;;;;;;;4.33;3.90;;;17.40;99.90;;;;;;4901617;29;20512;-84
2023/10/01 03:50:10;;;;;;;4.23;3.47;;;17.40;99.90;;;;;;4957233;28;20473;-86
2023/10/01 03:59:21;;;;;;;7.43;3.90;;;17.40;99.90;;;;;;5330366;22;20478;-85
2023/10/01 04:32:54;;;;;;;4.73;3.40;;;17.40;99.90;;;;;;5038409;28;20890;-84
2023/10/01 04:57:24;;;;;;;4.67;4.17;;;17.40;99.90;;;;;;5236959;23;20483;-86
2023/10/01 05:07:04;;;;;;;3.90;3.60;;;17.40;99.90;;;;;;5347557;23;20474;-87
2023/10/01 05:14:01;;;;;;;;;;;;;;;;;;;;;
2023/10/01 05:30:56;;;;;;;5.00;4.33;;;17.40;99.90;;;;;;4946212;28;21076;-86
2023/10/01 05:50:04;;;;;;;;;;;;;;;;;;;;;
2023/10/01 06:01:43;;;;;;;4.80;3.93;;;17.60;99.90;;;;;;5026502;28;20480;-85
2023/10/01 07:16:35;;;;;;;4.93;3.60;;;18.20;99.90;;;;;;5203151;23;20803;-83
2023/10/01 07:19:04;;;;;;;7.13;4.13;;;18.20;99.90;;;;;;5053965;28;20797;-85
2023/10/01 07:21:31;;;;;;;5.33;4.63;;;18.30;99.90;;;;;;5053931;28;20467;-85
2023/10/01 07:24:04;;;;;;;4.70;3.63;;;18.30;99.90;;;;;;5053597;28;20521;-82
2023/10/01 07:26:48;;;;;;;8.10;3.87;;;18.30;99.90;;;;;;5051420;28;20464;-83
2023/10/01 07:29:15;;;;;;;5.10;3.87;;;18.30;99.90;;;;;;5035863;28;20977;-82
2023/10/01 07:31:43;;;;;;;5.07;3.70;;;18.30;99.90;;;;;;5043895;28;20546;-84
2023/10/01 07:34:14;;;;;;;6.33;4.10;;;18.40;99.90;;;;;;5053211;28;20471;-82
2023/10/01 07:36:43;;;;;;;6.93;4.63;;;18.40;99.90;;;;;;5052738;28;20471;-83
2023/10/01 07:39:13;;;;;;;5.60;4.10;;;18.40;99.90;;;;;;5053669;28;20510;-83
2023/10/01 07:41:44;;;;;;;5.87;3.97;;;18.50;99.90;;;;;;5052756;28;20561;-84
2023/10/01 07:44:15;;;;;;;4.10;2.73;;;18.50;99.90;;;;;;5053962;28;20487;-84
2023/10/01 07:46:42;;;;;;;4.43;3.30;;;18.60;99.90;;;;;;5052615;28;20545;-84
2023/10/01 07:49:10;;;;;;;3.83;2.97;;;18.50;99.90;;;;;;5053360;28;20475;-82
2023/10/01 07:51:44;;;;;;;5.40;3.30;;;18.60;99.90;;;;;;5054027;28;20493;-84
2023/10/01 07:54:22;;;;;;;5.50;3.87;;;18.60;99.90;;;;;;5054860;28;20959;-83
2023/10/01 07:56:51;;;;;;;7.27;3.90;;;18.70;99.90;;;;;;5053019;28;20466;-85
2023/10/01 07:59:35;;;;;;;5.43;4.57;;;18.70;99.90;;;;;;5053964;28;20824;-84
2023/10/01 08:02:19;;;;;;;6.70;5.03;;;18.70;99.90;;;;;;5053255;28;20443;-85
2023/10/01 08:05:00;;;;;;;5.43;4.70;;;18.80;99.90;;;;;;5045675;28;20472;-87
2023/10/01 08:07:39;;;;;;;5.20;4.70;;;18.90;99.90;;;;;;5054749;28;20473;-85
2023/10/01 08:10:17;;;;;;;8.43;5.97;;;19.00;99.90;;;;;;5053309;28;20463;-86
2023/10/01 08:15:57;;;;;;;6.10;5.50;;;19.10;99.90;;;;;;5035800;28;20463;-84
2023/10/01 08:18:35;;;;;;;6.10;4.60;;;19.20;99.90;;;;;;5049266;28;20475;-85
2023/10/01 08:21:04;;;;;;;7.00;5.30;;;19.20;99.90;;;;;;5031928;28;20495;-85
2023/10/01 08:23:54;;;;;;;5.50;4.77;;;19.30;99.90;;;;;;5040329;28;20476;-84
2023/10/01 08:26:43;;;;;;;6.03;5.13;;;19.30;99.90;;;;;;5042744;28;20478;-85
2023/10/01 08:29:17;;;;;;;9.07;5.20;;;19.40;99.90;;;;;;5043880;28;20822;-85
2023/10/01 08:32:08;;;;;;;6.47;4.10;;;19.40;99.90;;;;;;5054500;28;20856;-85
2023/10/01 08:34:54;;;;;;;7.17;5.20;;;19.50;99.90;;;;;;5053117;28;20952;-84
2023/10/01 08:37:24;;;;;;;6.70;5.00;;;19.50;99.90;;;;;;5052630;28;20471;-84
2023/10/01 08:39:54;;;;;;;5.63;3.93;;;19.50;99.90;;;;;;5042942;28;20489;-84
2023/10/01 08:42:28;;;;;;;6.20;4.60;;;19.50;99.90;;;;;;5053610;28;20479;-84
2023/10/01 08:45:17;;;;;;;6.27;4.93;;;19.50;99.90;;;;;;5052928;28;20458;-84
2023/10/01 08:47:47;;;;;;;5.50;4.60;;;19.60;99.90;;;;;;5052715;28;20953;-84
2023/10/01 08:50:28;;;;;;;5.97;5.37;;;19.60;99.90;;;;;;5051779;28;20542;-84
2023/10/01 08:53:01;;;;;;;5.83;5.20;;;19.60;99.90;;;;;;5051638;28;20463;-83
2023/10/01 08:58:48;;;;;;;5.23;4.50;;;19.70;99.90;;;;;;5039323;28;20807;-83
2023/10/01 09:01:19;;;;;;;7.83;4.97;;;19.70;99.90;;;;;;5031301;28;20494;-83
2023/10/01 09:03:55;;;;;;;6.43;4.60;;;19.80;99.90;;;;;;5054903;28;20953;-83
2023/10/01 09:06:25;;;;;;;4.83;4.20;;;19.80;99.90;;;;;;5055809;28;20463;-84
2023/10/01 09:09:19;;;;;;;5.67;4.30;;;19.80;99.90;;;;;;5056879;28;20451;-84
2023/10/01 09:11:58;;;;;;;6.23;5.63;;;19.80;99.90;;;;;;5054372;28;20483;-84
2023/10/01 09:14:42;;;;;;;6.17;5.30;;;19.80;99.90;;;;;;5056893;28;20798;-84
2023/10/01 09:17:24;;;;;;;5.27;4.37;;;19.80;99.90;;;;;;5056602;28;20467;-84
2023/10/01 09:20:06;;;;;;;6.00;4.13;;;19.80;99.90;;;;;;5041538;28;20480;-84
2023/10/01 09:22:42;;;;;;;5.00;4.07;;;19.80;99.90;;;;;;5046652;28;20977;-85
2023/10/01 09:25:19;;;;;;;6.70;4.30;;;19.80;99.90;;;;;;5055643;28;22854;-84
2023/10/01 09:28:03;;;;;;;5.63;3.67;;;19.80;99.90;;;;;;5056203;28;20952;-84
2023/10/01 09:30:35;;;;;;;8.27;4.40;;;19.80;99.90;;;;;;5056696;28;20463;-84
2023/10/01 09:33:14;;;;;;;5.43;4.27;;;19.90;99.90;;;;;;5055516;28;20494;-84
2023/10/01 09:35:49;;;;;;;6.60;4.30;;;19.90;99.90;;;;;;5028346;28;20542;-83
2023/10/01 09:38:18;;;;;;;4.17;3.77;;;20.00;99.90;;;;;;5056106;28;20466;-83
2023/10/01 09:40:47;;;;;;;6.87;5.43;;;20.00;99.90;;;;;;5046926;28;20475;-83
2023/10/01 09:43:24;;;;;;;6.63;4.77;;;20.00;99.90;;;;;;5055936;28;20562;-85
2023/10/01 09:45:54;;;;;;;7.67;5.70;;;20.10;99.90;;;;;;5054805;28;20506;-86
2023/10/01 09:48:33;;;;;;;6.13;5.10;;;20.10;99.90;;;;;;5047376;28;20491;-84
2023/10/01 09:51:07;;;;;;;7.00;5.30;;;20.20;99.90;;;;;;5055423;28;20462;-83
2023/10/01 09:53:48;;;;;;;7.00;5.10;;;20.20;99.90;;;;;;5055805;28;20478;-84
2023/10/01 09:56:26;;;;;;;5.83;4.27;;;20.30;99.90;;;;;;5055328;28;20459;-84
2023/10/01 09:59:01;;;;;;;7.00;4.70;;;20.30;99.90;;;;;;5055338;28;20478;-84
2023/10/01 10:01:31;;;;;;;4.60;4.17;;;20.40;99.90;;;;;;5054453;28;20554;-84
2023/10/01 10:04:01;;;;;;;6.53;4.80;;;20.50;99.90;;;;;;5055396;28;20475;-84
2023/10/01 10:06:29;;;;;;;4.20;3.80;;;20.50;99.90;;;;;;5051825;28;20495;-83
2023/10/01 10:09:08;;;;;;;5.30;4.80;;;20.60;99.90;;;;;;5030358;28;20480;-84
2023/10/01 10:11:46;;;;;;;9.50;4.90;;;20.60;99.90;;;;;;5034180;28;20817;-84
2023/10/01 10:14:56;;;;;;;7.50;4.60;;;20.60;99.90;;;;;;5042646;28;20973;-84
2023/10/01 10:17:27;;;;;;;9.80;5.53;;;20.70;99.90;;;;;;5054832;28;20455;-83
2023/10/01 10:20:30;;;;;;;5.00;4.13;;;20.70;99.90;;;;;;5054889;28;20973;-84
2023/10/01 10:23:21;;;;;;;5.13;4.20;;;20.80;99.90;;;;;;5054925;28;20542;-83
2023/10/01 10:25:56;;;;;;;6.47;5.07;;;20.90;99.90;;;;;;5027904;28;20487;-84
2023/10/01 10:28:56;;;;;;;6.90;6.20;;;20.90;99.90;;;;;;5042654;28;20471;-85
2023/10/01 10:31:45;;;;;;;6.63;5.83;;;20.90;99.90;;;;;;5051290;28;20502;-84
2023/10/01 10:34:36;;;;;;;8.47;5.77;;;21.00;99.90;;;;;;5046057;28;20467;-84
2023/10/01 10:37:06;;;;;;;7.30;6.50;;;21.00;99.90;;;;;;5038998;28;20475;-85
2023/10/01 10:40:04;;;;;;;9.20;8.33;;;21.00;99.90;;;;;;5046943;28;20628;-85
2023/10/01 10:42:33;;;;;;;8.53;6.90;;;21.00;99.90;;;;;;5056238;28;20542;-83
2023/10/01 10:45:46;;;;;;;9.13;6.80;;;21.00;99.90;;;;;;5054479;28;20503;-82
2023/10/01 10:48:27;;;;;;;6.60;5.57;;;21.00;99.90;;;;;;5019043;28;20455;-83
2023/10/01 10:50:58;;;;;;;5.80;5.03;;;21.00;99.90;;;;;;5028795;28;20482;-84
2023/10/01 10:53:27;;;;;;;7.63;6.87;;;21.00;99.90;;;;;;5033498;28;20472;-83
2023/10/01 10:56:06;;;;;;;11.33;7.40;;;21.00;99.90;;;;;;5050215;28;20537;-84
2023/10/01 10:58:37;;;;;;;14.23;7.53;;;21.10;99.90;;;;;;5054328;28;20506;-83
2023/10/01 11:01:18;;;;;;;6.67;6.07;;;21.10;99.90;;;;;;5046374;28;20483;-84
2023/10/01 11:03:48;;;;;;;6.17;5.57;;;21.10;99.90;;;;;;5054629;28;20467;-84
2023/10/01 11:06:21;;;;;;;7.47;5.30;;;21.10;99.90;;;;;;5033572;28;20920;-84
2023/10/01 11:08:52;;;;;;;7.97;5.30;;;21.20;99.90;;;;;;5050160;28;20464;-84
2023/10/01 11:11:28;;;;;;;8.37;5.03;;;21.20;99.90;;;;;;5055012;28;20483;-83
2023/10/01 11:14:11;;;;;;;5.70;5.10;;;21.30;99.90;;;;;;5055453;28;20528;-84
2023/10/01 11:16:44;;;;;;;5.23;4.73;;;21.30;99.90;;;;;;5035711;28;20487;-84
2023/10/01 11:19:17;;;;;;;6.17;5.33;;;21.40;99.90;;;;;;5019690;28;20459;-83
2023/10/01 11:21:59;;;;;;;5.83;4.97;;;21.40;99.90;;;;;;5054535;28;20471;-84
2023/10/01 11:24:39;;;;;;;11.03;6.47;;;21.50;99.90;;;;;;5053767;28;20473;-84
2023/10/01 11:27:18;;;;;;;8.77;5.60;;;21.50;99.90;;;;;;5052494;28;20459;-84
2023/10/01 11:30:12;;;;;;;9.37;5.40;;;21.50;99.90;;;;;;5040988;28;20450;-84
2023/10/01 11:32:59;;;;;;;5.40;4.90;;;21.60;99.90;;;;;;5047877;28;20854;-84
2023/10/01 11:35:33;;;;;;;7.43;6.37;;;21.60;99.90;;;;;;5019853;28;20486;-84
2023/10/01 11:38:14;;;;;;;11.63;8.07;;;21.60;99.90;;;;;;5044627;28;20502;-84
2023/10/01 11:43:32;;;;;;;11.57;10.50;;;21.70;99.90;;;;;;5055138;28;20474;-83
2023/10/01 11:46:35;;;;;;;11.20;10.20;;;21.70;99.90;;;;;;5055168;28;20490;-84
2023/10/01 11:49:32;;;;;;;9.67;6.70;;;21.80;99.90;;;;;;5010411;28;20474;-83
2023/10/01 11:52:05;;;;;;;6.93;5.20;;;21.90;99.90;;;;;;5032781;28;20468;-84
2023/10/01 11:54:44;;;;;;;5.90;4.60;;;21.90;99.90;;;;;;5045942;28;20544;-85
2023/10/01 11:57:22;;;;;;;6.87;4.80;;;21.90;99.90;;;;;;5051980;28;20463;-84
2023/10/01 12:00:00;;;;;;;6.73;4.23;;;21.90;99.90;;;;;;5053218;28;20478;-84
2023/10/01 12:02:43;;;;;;;6.03;4.47;;;22.00;99.90;;;;;;5031283;28;20476;-85
2023/10/01 12:05:22;;;;;;;6.30;4.33;;;22.10;99.90;;;;;;5048579;28;20471;-84
2023/10/01 12:07:52;;;;;;;4.70;3.83;;;22.10;99.90;;;;;;5043905;28;20969;-84
2023/10/01 12:10:40;;;;;;;9.03;5.20;;;22.10;99.90;;;;;;5053940;28;20800;-84
2023/10/01 12:13:07;;;;;;;4.23;3.87;;;22.20;99.90;;;;;;5041297;28;20467;-85
2023/10/01 12:15:51;;;;;;;6.87;4.10;;;22.20;99.90;;;;;;5043829;28;20556;-85
2023/10/01 12:18:46;;;;;;;6.30;5.40;;;22.20;99.90;;;;;;5055097;28;20969;-84
2023/10/01 12:30:32;;;;;;;7.10;4.53;;;22.00;99.90;;;;;;5037864;28;20470;-84
2023/10/01 12:33:10;;;;;;;7.37;4.53;;;22.00;99.90;;;;;;5054246;28;20470;-84
2023/10/01 12:35:38;;;;;;;4.53;4.07;;;22.00;99.90;;;;;;5037161;28;20538;-84
2023/10/01 12:38:38;;;;;;;7.70;4.43;;;22.00;99.90;;;;;;5044593;28;20836;-85
2023/10/01 12:41:47;;;;;;;14.67;7.27;;;22.10;99.90;;;;;;5022219;28;20482;-85
2023/10/01 12:44:30;;;;;;;15.03;6.27;;;22.00;99.90;;;;;;5046842;28;20471;-83
2023/10/01 12:47:02;;;;;;;9.93;5.87;;;22.00;99.90;;;;;;5054632;28;20482;-84
2023/10/01 12:49:32;;;;;;;15.00;7.23;;;22.00;99.90;;;;;;5033825;28;20957;-85
2023/10/01 12:52:03;;;;;;;13.33;5.30;;;22.00;99.90;;;;;;5058306;28;20459;-86
2023/10/01 12:54:42;;;;;;;7.80;4.73;;;22.00;99.90;;;;;;5056829;28;20478;-84
2023/10/01 12:57:09;;;;;;;7.80;4.63;;;21.90;99.90;;;;;;5056822;28;20536;-84
2023/10/01 12:59:48;;;;;;;19.27;8.67;;;21.90;99.90;;;;;;5056282;28;20482;-83
2023/10/01 13:03:17;;;;;;;8.97;7.50;;;21.90;99.90;;;;;;5057011;28;20474;-85
2023/10/01 13:05:45;;;;;;;6.30;5.67;;;21.90;99.90;;;;;;5041175;28;20462;-85
2023/10/01 13:08:13;;;;;;;6.80;5.33;;;21.90;99.90;;;;;;5055194;28;20467;-84
2023/10/01 13:10:50;;;;;;;5.13;4.30;;;21.90;99.90;;;;;;5055472;28;20471;-83
2023/10/01 13:13:20;;;;;;;5.90;5.10;;;21.90;99.90;;;;;;5056092;28;20525;-84
2023/10/01 13:16:26;;;;;;;5.73;5.23;;;21.90;99.90;;;;;;5029837;28;20479;-85
2023/10/01 13:19:33;;;;;;;9.40;5.40;;;21.90;99.80;;;;;;5036993;28;20527;-85
2023/10/01 13:31:03;;;;;;;3.87;3.53;;;21.80;99.90;;;;;;4988290;28;20479;-84
2023/10/01 13:39:52;;;;;;;5.50;4.70;;;21.80;99.90;;;;;;5027280;28;21060;-84
2023/10/01 14:10:20;;;;;;;10.67;7.70;;;21.90;99.90;;;;;;5047551;28;20906;-85
2023/10/01 14:13:12;;;;;;;8.10;5.50;;;21.90;99.90;;;;;;5047476;28;20479;-85
2023/10/01 14:15:40;;;;;;;7.07;6.30;;;21.90;99.90;;;;;;5030327;28;20503;-83
2023/10/01 14:18:34;;;;;;;8.90;6.40;;;21.90;99.90;;;;;;5045915;28;20499;-85
2023/10/01 14:21:12;;;;;;;13.40;9.80;;;21.90;99.90;;;;;;5031109;28;20538;-85
2023/10/01 14:26:33;;;;;;;8.87;6.67;;;21.80;99.90;;;;;;5380261;23;20499;-83
2023/10/01 14:29:33;;;;;;;9.27;6.43;;;21.80;99.90;;;;;;5034008;28;20455;-86
2023/10/01 14:34:49;;;;;;;13.57;9.07;;;21.70;99.90;;;;;;5033517;28;20928;-84
2023/10/01 14:37:22;;;;;;;9.50;7.90;;;21.70;99.80;;;;;;5025506;28;20468;-84
2023/10/01 14:39:54;;;;;;;10.73;7.33;;;21.70;99.60;;;;;;5034372;28;20469;-84
2023/10/01 14:42:36;;;;;;;9.80;6.40;;;21.70;99.60;;;;;;5035773;28;20468;-85
2023/10/01 14:45:32;;;;;;;11.67;6.67;;;21.70;99.60;;;;;;5024214;28;20523;-83
2023/10/01 14:48:14;;;;;;;7.60;5.47;;;21.60;99.70;;;;;;5024545;28;20852;-85
2023/10/01 14:50:56;;;;;;;5.27;4.10;;;21.60;99.70;;;;;;5033062;28;20969;-85
2023/10/01 14:53:36;;;;;;;4.10;3.80;;;21.60;99.70;;;;;;5014027;28;20474;-84
2023/10/01 14:56:20;;;;;;;5.10;3.80;;;21.50;99.80;;;;;;5038048;28;20478;-85
2023/10/01 14:58:53;;;;;;;3.80;3.37;;;21.50;99.80;;;;;;5024910;28;20559;-84
2023/10/01 15:01:37;;;;;;;4.07;3.67;;;21.50;99.90;;;;;;5014657;28;20484;-84
2023/10/01 15:07:01;;;;;;;7.33;5.43;;;21.40;99.90;;;;;;5031343;28;20806;-84
2023/10/01 15:10:05;;;;;;;6.00;5.07;;;21.40;99.90;;;;;;5035116;28;20563;-84
2023/10/01 15:12:52;;;;;;;5.83;5.23;;;21.40;99.90;;;;;;5028211;28;20468;-84
2023/10/01 15:18:17;;;;;;;9.00;6.50;;;21.40;99.90;;;;;;5042002;28;21017;-84
2023/10/01 15:23:50;;;;;;;6.30;5.07;;;21.40;99.90;;;;;;5035109;28;20829;-84
2023/10/01 15:26:23;;;;;;;5.23;4.47;;;21.30;99.90;;;;;;5045588;28;20554;-85
2023/10/01 15:28:57;;;;;;;5.03;4.53;;;21.30;99.90;;;;;;5053652;28;20567;-84
2023/10/01 15:31:48;;;;;;;5.73;4.70;;;21.30;99.90;;;;;;5053054;28;20520;-83
2023/10/01 15:34:20;;;;;;;9.43;5.60;;;21.20;99.90;;;;;;5045604;28;20479;-83
2023/10/01 15:36:51;;;;;;;6.80;4.70;;;21.10;99.90;;;;;;5038703;28;20463;-83
2023/10/01 15:42:44;;;;;;;7.60;6.53;;;20.90;99.90;;;;;;5024960;28;20459;-82
2023/10/01 15:48:10;;;;;;;6.87;6.20;;;20.60;99.90;;;;;;5050124;28;20572;-83
2023/10/01 15:50:41;;;;;;;8.70;6.50;;;20.50;99.90;;;;;;5044002;28;20451;-84
2023/10/01 15:53:25;;;;;;;7.80;6.30;;;20.40;99.90;;;;;;5043167;28;20810;-85
2023/10/01 15:56:05;;;;;;;8.53;6.63;;;20.20;99.90;;;;;;5028533;28;20472;-83
2023/10/01 15:58:36;;;;;;;9.27;6.10;;;20.10;99.90;;;;;;5023990;28;20456;-85
2023/10/01 16:01:04;;;;;;;6.37;5.67;;;19.90;99.90;;;;;;5034976;28;20471;-85
2023/10/01 16:06:30;;;;;;;6.43;5.73;;;19.70;99.90;;;;;;5010538;28;20486;-84
2023/10/01 16:08:58;;;;;;;8.03;6.87;;;19.60;99.90;;;;;;5039313;28;20539;-84
2023/10/01 16:11:33;;;;;;;10.33;7.40;;;19.40;99.90;;;;;;5043996;28;20458;-83
2023/10/01 16:14:11;;;;;;;8.80;6.30;;;19.30;99.90;;;;;;5034486;28;20478;-84
2023/10/01 16:16:42;;;;;;;7.17;6.47;;;19.20;99.90;;;;;;5036605;28;20464;-83
2023/10/01 16:19:13;;;;;;;8.00;6.70;;;19.10;99.90;;;;;;5024744;28;20471;-85
2023/10/01 16:21:42;;;;;;;9.37;7.00;;;19.10;99.90;;;;;;5036485;28;20463;-84
2023/10/01 16:24:14;;;;;;;8.63;6.70;;;19.00;99.90;;;;;;5051662;28;20529;-83
2023/10/01 16:46:30;;;;;;;10.03;8.13;;;18.60;99.90;;;;;;5412934;23;20476;-84
2023/10/01 16:48:59;;;;;;;8.07;7.13;;;18.50;99.90;;;;;;5012881;28;20465;-84
2023/10/01 16:51:26;;;;;;;10.80;7.40;;;18.50;99.90;;;;;;5014032;28;20556;-83
2023/10/01 16:53:57;;;;;;;12.00;8.07;;;18.50;99.90;;;;;;5012284;28;20465;-84
2023/10/01 16:56:29;;;;;;;8.30;7.13;;;18.50;99.90;;;;;;4993801;28;20520;-83
2023/10/01 16:59:07;;;;;;;10.10;8.10;;;18.50;99.90;;;;;;4992820;28;20485;-85
2023/10/01 17:01:38;;;;;;;13.37;8.10;;;18.40;99.90;;;;;;4993594;28;20904;-84
2023/10/01 17:04:44;;;;;;;8.33;7.53;;;18.40;99.90;;;;;;4992437;28;20854;-85
2023/10/01 17:07:24;;;;;;;10.00;7.57;;;18.50;99.90;;;;;;4974631;28;20476;-85
2023/10/01 17:09:52;;;;;;;7.87;7.07;;;18.40;99.90;;;;;;5004115;28;20879;-84
2023/10/01 17:12:23;;;;;;;7.70;6.80;;;18.40;99.90;;;;;;4991552;28;20504;-83
2023/10/01 17:14:52;;;;;;;8.60;7.03;;;18.40;99.90;;;;;;4993345;28;20534;-83
2023/10/01 17:17:21;;;;;;;8.23;7.40;;;18.50;99.90;;;;;;4993165;28;20839;-83
2023/10/01 17:19:54;;;;;;;9.87;7.40;;;18.50;99.90;;;;;;4983270;28;20462;-83
2023/10/01 17:22:24;;;;;;;8.40;7.33;;;18.50;99.90;;;;;;4993169;28;20585;-84
2023/10/01 17:25:13;;;;;;;9.20;7.70;;;18.50;99.90;;;;;;5000585;28;20521;-84
2023/10/01 17:27:41;;;;;;;8.37;7.37;;;18.50;99.90;;;;;;5001974;28;20470;-84
2023/10/01 17:30:18;;;;;;;7.80;6.90;;;18.50;99.90;;;;;;4994208;28;20500;-85
2023/10/01 17:33:12;;;;;;;9.27;7.30;;;18.50;99.90;;;;;;4986325;28;20466;-85
2023/10/01 17:38:40;;;;;;;134.10;106.17;;;18.60;99.90;;;;;;5023145;28;20474;-84
2023/10/01 17:41:33;;;;;;;69.07;58.37;;;18.60;99.90;;;;;;5041981;28;20998;-84
2023/10/01 17:44:03;;;;;;;33.90;28.60;;;18.60;99.90;;;;;;5031401;28;20465;-85
2023/10/01 17:46:41;;;;;;;17.93;12.80;;;18.60;99.90;;;;;;4997457;28;20484;-85
2023/10/01 17:49:16;;;;;;;12.50;11.30;;;18.60;99.90;;;;;;5004089;28;20484;-83
2023/10/01 17:51:55;;;;;;;16.40;12.27;;;18.60;99.90;;;;;;5007870;28;20967;-85
2023/10/01 17:54:27;;;;;;;11.93;9.60;;;18.60;99.90;;;;;;5028108;28;20942;-85
2023/10/01 17:57:40;;;;;;;10.50;8.70;;;18.60;99.90;;;;;;5034392;28;20472;-86
2023/10/01 18:00:41;;;;;;;10.07;7.20;;;18.60;99.90;;;;;;4991909;28;20858;-84
2023/10/01 18:03:19;;;;;;;8.80;6.53;;;18.60;99.90;;;;;;5017357;28;20564;-86
2023/10/01 18:06:02;;;;;;;6.80;6.10;;;18.60;99.90;;;;;;5017144;28;20472;-84
2023/10/01 18:08:36;;;;;;;9.30;7.83;;;18.60;99.90;;;;;;5016321;28;20528;-85
2023/10/01 18:11:11;;;;;;;9.40;7.10;;;18.60;99.90;;;;;;5016525;28;20484;-85
2023/10/01 18:13:45;;;;;;;13.20;8.97;;;18.60;99.90;;;;;;4989753;28;20478;-84
2023/10/01 18:16:25;;;;;;;9.67;8.70;;;18.60;99.90;;;;;;5018868;28;20503;-85
2023/10/01 18:19:06;;;;;;;10.60;7.90;;;18.60;99.90;;;;;;5007870;28;20472;-85
2023/10/01 18:21:38;;;;;;;12.93;7.27;;;18.60;99.90;;;;;;5027365;28;21006;-86
2023/10/01 18:24:18;;;;;;;11.53;10.07;;;18.60;99.90;;;;;;5036646;28;20495;-85
2023/10/01 18:26:53;;;;;;;10.27;7.60;;;18.60;99.90;;;;;;5030372;28;20468;-85
2023/10/01 18:30:18;;;;;;;7.10;6.40;;;18.60;99.90;;;;;;5037113;28;20499;-86
2023/10/01 18:32:57;;;;;;;7.43;6.73;;;18.60;99.90;;;;;;5030328;28;20468;-84
2023/10/01 18:36:03;;;;;;;15.80;12.13;;;18.50;99.90;;;;;;5030935;28;20598;-85
2023/10/01 18:38:33;;;;;;;12.30;10.70;;;18.50;99.90;;;;;;5025147;28;20483;-85
2023/10/01 18:41:34;;;;;;;12.87;10.13;;;18.50;99.90;;;;;;5024567;28;20538;-84
2023/10/01 18:44:06;;;;;;;13.30;10.73;;;18.50;99.90;;;;;;5028115;28;20453;-84
2023/10/01 18:46:34;;;;;;;13.63;12.20;;;18.50;99.90;;;;;;5035621;28;20503;-84
2023/10/01 18:49:01;;;;;;;10.30;9.30;;;18.50;99.90;;;;;;5035265;28;20499;-85
2023/10/01 18:52:24;;;;;;;12.13;10.97;;;18.50;99.90;;;;;;5008750;28;20572;-83
2023/10/01 18:55:14;;;;;;;9.57;8.57;;;18.50;99.90;;;;;;5014044;28;20527;-84
2023/10/01 18:57:44;;;;;;;9.10;6.97;;;18.60;99.90;;;;;;5015810;28;20460;-83
2023/10/01 19:00:21;;;;;;;7.17;6.43;;;18.50;99.90;;;;;;5015338;28;20608;-84
2023/10/01 19:03:24;;;;;;;50.83;40.63;;;18.60;99.90;;;;;;4999070;28;20478;-84
2023/10/01 19:06:00;;;;;;;17.20;14.40;;;18.60;99.90;;;;;;4935714;29;20472;-83
2023/10/01 19:08:30;;;;;;;12.57;10.80;;;18.60;99.90;;;;;;4996081;28;20476;-84
2023/10/01 19:13:58;;;;;;;9.20;8.03;;;18.70;99.90;;;;;;4986316;28;20505;-82
2023/10/01 19:16:31;;;;;;;9.33;7.70;;;18.70;99.90;;;;;;4998288;28;20480;-83
2023/10/01 19:19:11;;;;;;;;;;;;;;;;;;;;;
2023/10/01 19:21:42;;;;;;;6.60;6.00;;;18.70;99.90;;;;;;5035519;28;20492;-83
2023/10/01 19:24:17;;;;;;;8.90;7.60;;;18.70;99.90;;;;;;5026905;28;20503;-83
2023/10/01 19:26:46;;;;;;;7.63;6.93;;;18.70;99.90;;;;;;5019172;28;20570;-83
2023/10/01 19:29:17;;;;;;;10.50;7.20;;;18.70;99.90;;;;;;5034235;28;20479;-83
2023/10/01 19:31:50;;;;;;;7.83;6.60;;;18.80;99.90;;;;;;5036972;28;20537;-84
2023/10/01 19:34:23;;;;;;;8.17;6.77;;;18.80;99.90;;;;;;5034619;28;20861;-82
2023/10/01 19:37:02;;;;;;;7.47;6.00;;;18.80;99.90;;;;;;5034660;28;20526;-84
2023/10/01 19:39:52;;;;;;;7.73;6.93;;;18.80;99.90;;;;;;5015899;28;20485;-84
2023/10/01 19:43:10;;;;;;;6.83;6.10;;;18.80;99.90;;;;;;5022751;28;20483;-85
2023/10/01 19:45:41;;;;;;;7.50;6.40;;;18.80;99.90;;;;;;4982636;28;20495;-82
2023/10/01 19:48:22;;;;;;;9.60;6.47;;;18.80;99.90;;;;;;5021114;28;20503;-83
2023/10/01 19:50:56;;;;;;;7.20;6.20;;;18.80;99.90;;;;;;5035109;28;20475;-85
2023/10/01 19:53:52;;;;;;;8.13;7.17;;;18.80;99.90;;;;;;5035266;28;20540;-82
2023/10/01 19:56:21;;;;;;;9.00;8.07;;;18.80;99.90;;;;;;5034743;28;20487;-82
2023/10/01 19:58:52;;;;;;;12.87;8.17;;;18.80;99.90;;;;;;5045663;28;20530;-83
2023/10/01 20:01:52;;;;;;;9.97;8.93;;;18.80;99.90;;;;;;5047236;28;20464;-85
2023/10/01 20:04:29;;;;;;;8.73;7.83;;;18.80;99.90;;;;;;5046474;28;20476;-85
2023/10/01 20:07:14;;;;;;;8.50;7.70;;;18.80;99.90;;;;;;5025645;28;20467;-84
2023/10/01 20:09:48;;;;;;;10.07;8.47;;;18.90;99.90;;;;;;5048059;28;20530;-87
2023/10/01 20:12:22;;;;;;;9.93;8.53;;;18.80;99.90;;;;;;5018991;28;20447;-86
2023/10/01 20:14:52;;;;;;;7.37;6.67;;;18.90;99.90;;;;;;5046160;28;20461;-85
2023/10/01 20:17:26;;;;;;;7.80;6.40;;;18.90;99.90;;;;;;5034947;28;20544;-84
2023/10/01 20:20:08;;;;;;;7.83;6.97;;;18.90;99.90;;;;;;5045437;28;20531;-84
2023/10/01 20:22:43;;;;;;;7.73;6.90;;;18.90;99.90;;;;;;5019115;28;20471;-85
2023/10/01 20:25:14;;;;;;;7.43;6.73;;;18.90;99.90;;;;;;5035987;28;20455;-84
2023/10/01 20:27:42;;;;;;;7.13;6.17;;;18.90;99.90;;;;;;5036163;28;20471;-85
2023/10/01 20:30:20;;;;;;;27.83;23.47;;;18.90;99.90;;;;;;5025269;28;20476;-86
2023/10/01 20:32:56;;;;;;;21.10;18.57;;;18.90;99.90;;;;;;5032755;28;20921;-86
2023/10/01 20:35:27;;;;;;;15.43;13.17;;;18.90;99.90;;;;;;5033108;28;20470;-85
2023/10/01 20:38:06;;;;;;;11.07;9.93;;;18.90;99.90;;;;;;5033556;28;20463;-86
2023/10/01 20:40:46;;;;;;;10.27;8.70;;;18.90;99.90;;;;;;5034364;28;20869;-83
2023/10/01 20:43:36;;;;;;;7.20;6.50;;;19.00;99.90;;;;;;5024235;28;20456;-87
2023/10/01 20:46:14;;;;;;;8.07;7.00;;;19.00;99.90;;;;;;5007239;28;20530;-84
2023/10/01 20:48:59;;;;;;;8.23;7.23;;;18.90;99.90;;;;;;5032952;28;20476;-87
2023/10/01 20:51:33;;;;;;;6.77;6.00;;;19.00;99.90;;;;;;4985782;28;20470;-85
2023/10/01 20:54:29;;;;;;;6.80;6.10;;;19.00;99.90;;;;;;4980306;28;20479;-88
2023/10/01 20:57:00;;;;;;;6.50;5.90;;;19.00;99.90;;;;;;5011856;28;20608;-83
2023/10/01 20:59:32;;;;;;;6.93;5.60;;;19.00;99.90;;;;;;4989830;28;20537;-88
2023/10/01 21:02:08;;;;;;;6.53;5.70;;;19.00;99.90;;;;;;5008186;28;20935;-86
2023/10/01 21:04:40;;;;;;;6.60;5.83;;;19.00;99.90;;;;;;5034717;23;20481;-84
2023/10/01 21:07:14;;;;;;;7.40;6.37;;;19.00;99.90;;;;;;5055990;28;20921;-86
2023/10/01 21:09:47;;;;;;;9.13;7.20;;;19.00;99.90;;;;;;5033339;28;20476;-87
2023/10/01 21:15:05;;;;;;;7.90;6.57;;;19.00;99.90;;;;;;5041369;28;20483;-89
2023/10/01 23:19:38;;;;;;;7.73;6.70;;;19.20;99.90;;;;;;5097448;23;20459;-83
2023/10/01 23:22:17;;;;;;;7.17;5.77;;;19.20;99.90;;;;;;5053560;28;20471;-83
2023/10/01 23:24:51;;;;;;;7.10;6.10;;;19.20;99.90;;;;;;5054292;28;20463;-86
2023/10/01 23:27:53;;;;;;;7.50;6.10;;;19.20;99.90;;;;;;5049387;28;20462;-85
2023/10/01 23:30:35;;;;;;;6.17;5.50;;;19.20;99.90;;;;;;5012496;28;20488;-83
2023/10/01 23:33:09;;;;;;;6.33;5.73;;;19.20;99.90;;;;;;5013627;28;20484;-84
2023/10/01 23:35:52;;;;;;;7.50;6.37;;;19.20;99.90;;;;;;5014358;28;20461;-84
2023/10/01 23:38:27;;;;;;;6.13;5.40;;;19.20;99.90;;;;;;5013722;28;20571;-84
2023/10/01 23:40:55;;;;;;;7.70;6.50;;;19.20;99.90;;;;;;5014165;28;20547;-84
2023/10/01 23:43:50;;;;;;;7.87;7.17;;;19.20;99.90;;;;;;5014059;28;20476;-83
2023/10/01 23:46:16;;;;;;;8.20;7.40;;;19.20;99.90;;;;;;5012313;28;20465;-83
2023/10/01 23:48:50;;;;;;;8.10;6.73;;;19.20;99.90;;;;;;5013738;28;20546;-86
2023/10/01 23:51:21;;;;;;;8.10;7.30;;;19.20;99.90;;;;;;5013589;28;20881;-86
2023/10/01 23:53:55;;;;;;;8.00;7.20;;;19.20;99.90;;;;;;5014296;28;20497;-86
2023/10/01 23:56:26;;;;;;;8.23;6.40;;;19.20;99.90;;;;;;5013912;28;20453;-85